Terminal Aerodrome Forecast
Issued by NWS

Home | Current Version | Previous Version | Text Only | Print | Product List | Glossary On
Versions: 1 2 3 4 5 6 7 8 9 10 11 12 13 14 15 16 17 18
000
FTUS46 KSGX 310520
TAFONT
TAF
KONT 310520Z 3106/0112 VRB04KT P6SM SKC
     FM311200 VRB04KT 5SM BR SCT007
     FM311500 VRB04KT 6SM HZ SKC
     FM312000 26011KT P6SM FEW090
     FM010400 VRB04KT P6SM SKC=

USA.gov is the U.S. government's official web portal to all federal, state and local government web resources and services.